Time;durP1;ratioP1;P1;durP2;ratioP2;P2;SDS_P1;SDS_P2;PMS_P1;PMS_P2;Temp;Humidity;BMP_temperature;BMP_pressure;BME280_temperature;BME280_humidity;BME280_pressure;Samples;Min_cycle;Max_cycle;Signal;HPM_P1;HPM_P2
2023/10/11 00:00:45;;;;;;;10.37;4.73;;;14.20;99.90;;;;;;5072897;28;20209;-58
2023/10/11 00:03:16;;;;;;;11.97;6.23;;;14.20;99.90;;;;;;5069585;28;20297;-58
2023/10/11 00:05:48;;;;;;;12.37;6.73;;;14.20;99.90;;;;;;5072728;28;20263;-58
2023/10/11 00:08:18;;;;;;;6.30;4.50;;;14.10;99.90;;;;;;5073081;28;20224;-58
2023/10/11 00:10:49;;;;;;;11.57;4.53;;;14.10;99.90;;;;;;5072948;28;20250;-58
2023/10/11 00:13:17;;;;;;;18.67;5.53;;;14.10;99.90;;;;;;5072624;28;20205;-58
2023/10/11 00:15:50;;;;;;;11.70;5.00;;;14.10;99.90;;;;;;5071320;28;20636;-58
2023/10/11 00:18:21;;;;;;;10.77;4.53;;;14.10;99.90;;;;;;5070273;28;20777;-58
2023/10/11 00:20:51;;;;;;;7.63;4.43;;;14.20;99.90;;;;;;5064634;28;20613;-57
2023/10/11 00:23:22;;;;;;;11.60;3.83;;;14.30;99.90;;;;;;5072283;28;20201;-58
2023/10/11 00:25:50;;;;;;;9.53;4.13;;;14.30;99.90;;;;;;5072007;28;20286;-58
2023/10/11 00:28:22;;;;;;;11.43;4.17;;;14.30;99.90;;;;;;5071383;28;20322;-58
2023/10/11 00:30:52;;;;;;;8.33;3.83;;;14.30;99.90;;;;;;5052500;28;20209;-58
2023/10/11 00:33:19;;;;;;;10.43;3.00;;;14.30;99.90;;;;;;5052358;28;20247;-58
2023/10/11 00:35:48;;;;;;;14.40;4.13;;;14.30;99.90;;;;;;5064313;28;20224;-58
2023/10/11 00:38:18;;;;;;;8.07;3.43;;;14.30;99.90;;;;;;5072191;28;20299;-58
2023/10/11 00:41:06;;;;;;;7.37;3.63;;;14.20;99.90;;;;;;5072046;28;20205;-58
2023/10/11 00:43:37;;;;;;;9.50;3.43;;;14.10;99.90;;;;;;5071847;28;20197;-59
2023/10/11 00:46:08;;;;;;;10.50;4.00;;;14.00;99.90;;;;;;5071624;28;20274;-59
2023/10/11 00:48:36;;;;;;;10.97;3.77;;;14.00;99.90;;;;;;5072488;28;20217;-58
2023/10/11 00:51:07;;;;;;;9.13;4.03;;;13.90;99.90;;;;;;5071441;28;20255;-58
2023/10/11 00:53:35;;;;;;;6.50;4.10;;;13.80;99.90;;;;;;5071718;28;20236;-59
2023/10/11 00:56:05;;;;;;;10.93;5.30;;;13.70;99.90;;;;;;5072250;28;20765;-58
2023/10/11 00:58:32;;;;;;;10.40;5.17;;;13.60;99.90;;;;;;5070704;28;20226;-58
2023/10/11 01:01:02;;;;;;;9.03;4.07;;;13.60;99.90;;;;;;5068648;28;20258;-58
2023/10/11 01:03:32;;;;;;;7.17;4.40;;;13.50;99.90;;;;;;5063147;28;20201;-58
2023/10/11 01:06:00;;;;;;;6.10;4.73;;;13.50;99.90;;;;;;5069640;28;20213;-58
2023/10/11 01:08:27;;;;;;;14.13;5.10;;;13.50;99.90;;;;;;5071794;28;20232;-58
2023/10/11 01:10:54;;;;;;;8.33;4.33;;;13.50;99.90;;;;;;5072381;28;20229;-59
2023/10/11 01:13:23;;;;;;;8.10;4.47;;;13.50;99.90;;;;;;5071916;28;20280;-58
2023/10/11 01:15:50;;;;;;;9.10;5.10;;;13.40;99.90;;;;;;5069965;28;20197;-58
2023/10/11 01:18:19;;;;;;;13.20;5.07;;;13.40;99.90;;;;;;5071890;28;20239;-58
2023/10/11 01:20:51;;;;;;;6.10;3.00;;;13.40;99.90;;;;;;5070292;28;20306;-58
2023/10/11 01:23:18;;;;;;;8.77;4.07;;;13.40;99.90;;;;;;5071792;28;20205;-58
2023/10/11 01:25:48;;;;;;;9.33;4.00;;;13.40;99.90;;;;;;5072013;28;20227;-58
2023/10/11 01:28:15;;;;;;;11.50;4.97;;;13.30;99.90;;;;;;5070714;28;20287;-58
2023/10/11 01:30:47;;;;;;;11.17;4.47;;;13.30;99.90;;;;;;5070628;28;20625;-58
2023/10/11 01:33:16;;;;;;;10.97;5.03;;;13.30;99.90;;;;;;5071220;28;20197;-58
2023/10/11 01:35:48;;;;;;;8.03;4.53;;;13.30;99.90;;;;;;5071829;28;20221;-58
2023/10/11 01:38:18;;;;;;;12.57;4.33;;;13.30;99.90;;;;;;5071895;28;20252;-59
2023/10/11 01:40:54;;;;;;;12.33;4.90;;;13.40;99.90;;;;;;5070272;28;20208;-58
2023/10/11 01:43:21;;;;;;;8.37;4.17;;;13.30;99.90;;;;;;5071111;28;20197;-59
2023/10/11 01:45:50;;;;;;;14.07;5.27;;;13.30;99.90;;;;;;5071419;28;20224;-58
2023/10/11 01:48:18;;;;;;;7.90;5.63;;;13.20;99.90;;;;;;5062819;28;20226;-58
2023/10/11 01:50:47;;;;;;;6.77;4.67;;;13.20;99.90;;;;;;5067456;28;20202;-59
2023/10/11 01:53:18;;;;;;;7.13;4.37;;;13.20;99.90;;;;;;5068188;28;20655;-58
2023/10/11 01:55:49;;;;;;;6.87;4.47;;;13.10;99.90;;;;;;5071520;28;20253;-58
2023/10/11 01:58:16;;;;;;;10.53;5.17;;;13.10;99.90;;;;;;5071394;28;20223;-59
2023/10/11 02:00:48;;;;;;;7.33;4.40;;;13.00;99.90;;;;;;5069500;28;20679;-57
2023/10/11 02:03:15;;;;;;;11.77;4.10;;;13.10;99.90;;;;;;5069789;28;20676;-58
2023/10/11 02:05:43;;;;;;;12.23;5.07;;;13.10;99.90;;;;;;5069025;28;20201;-58
2023/10/11 02:08:14;;;;;;;12.57;3.93;;;13.10;99.90;;;;;;5071257;28;20578;-58
2023/10/11 02:10:44;;;;;;;8.60;3.83;;;13.10;99.90;;;;;;5071311;28;20201;-58
2023/10/11 02:13:11;;;;;;;9.20;4.30;;;13.10;99.90;;;;;;5071236;28;20216;-58
2023/10/11 02:15:40;;;;;;;9.53;4.53;;;13.10;99.90;;;;;;5071519;28;20219;-58
2023/10/11 02:18:08;;;;;;;6.47;3.67;;;13.10;99.90;;;;;;5072227;28;20255;-58
2023/10/11 02:20:45;;;;;;;9.47;4.10;;;13.00;99.90;;;;;;5074224;28;20269;-58
2023/10/11 02:23:12;;;;;;;8.93;4.23;;;12.90;99.90;;;;;;5069130;28;20642;-58
2023/10/11 02:25:46;;;;;;;6.33;3.70;;;12.90;99.90;;;;;;5075411;28;20225;-58
2023/10/11 02:28:15;;;;;;;11.13;4.23;;;12.90;99.90;;;;;;5074821;28;20328;-58
2023/10/11 02:30:42;;;;;;;6.50;3.43;;;12.80;99.90;;;;;;5073792;28;20258;-58
2023/10/11 02:33:11;;;;;;;10.33;4.00;;;12.80;99.90;;;;;;5074712;28;20246;-58
2023/10/11 02:35:51;;;;;;;7.03;3.63;;;12.80;99.90;;;;;;5075140;28;20204;-58
2023/10/11 02:38:23;;;;;;;9.23;4.23;;;12.80;99.90;;;;;;5069265;28;20229;-58
2023/10/11 02:40:55;;;;;;;7.93;4.70;;;12.80;99.90;;;;;;5070416;28;20669;-58
2023/10/11 02:43:26;;;;;;;7.53;4.13;;;12.70;99.90;;;;;;5073606;28;20236;-58
2023/10/11 02:45:53;;;;;;;9.30;4.47;;;12.60;99.90;;;;;;5074711;28;20757;-58
2023/10/11 02:48:20;;;;;;;5.47;2.87;;;12.60;99.90;;;;;;5074819;28;20267;-57
2023/10/11 02:50:48;;;;;;;5.30;3.30;;;12.60;99.90;;;;;;5074863;28;20197;-58
2023/10/11 02:53:25;;;;;;;6.67;3.93;;;12.60;99.90;;;;;;5066653;28;20202;-58
2023/10/11 02:55:59;;;;;;;8.63;3.87;;;12.60;99.90;;;;;;5067049;28;20198;-58
2023/10/11 02:58:30;;;;;;;8.63;3.43;;;12.60;99.90;;;;;;5074628;28;20217;-58
2023/10/11 03:00:59;;;;;;;8.50;3.97;;;12.50;99.90;;;;;;5072957;28;20301;-59
2023/10/11 03:03:27;;;;;;;12.63;4.00;;;12.50;99.90;;;;;;5074484;28;20208;-58
2023/10/11 03:05:56;;;;;;;9.10;3.63;;;12.50;99.90;;;;;;5074515;28;20668;-58
2023/10/11 03:08:26;;;;;;;7.20;4.10;;;12.50;99.90;;;;;;5072523;28;20727;-58
2023/10/11 03:10:54;;;;;;;9.40;3.30;;;12.60;99.90;;;;;;5067813;28;20197;-58
2023/10/11 03:13:26;;;;;;;7.37;3.87;;;12.60;99.90;;;;;;5073951;28;20197;-57
2023/10/11 03:15:57;;;;;;;2.93;2.63;;;12.50;99.90;;;;;;5074407;28;20706;-58
2023/10/11 03:18:25;;;;;;;7.03;3.33;;;12.50;99.90;;;;;;5074336;28;20227;-57
2023/10/11 03:21:02;;;;;;;10.70;3.40;;;12.50;99.90;;;;;;5072947;28;20306;-57
2023/10/11 03:23:36;;;;;;;8.63;3.80;;;12.50;99.90;;;;;;5071474;28;20200;-58
2023/10/11 03:26:08;;;;;;;11.63;3.07;;;12.40;99.90;;;;;;5074500;28;20267;-58
2023/10/11 03:28:35;;;;;;;7.83;3.90;;;12.40;99.90;;;;;;5092185;22;20227;-56
2023/10/11 03:31:03;;;;;;;5.50;2.87;;;12.40;99.90;;;;;;5053560;28;20724;-56
2023/10/11 03:33:30;;;;;;;8.77;3.63;;;12.40;99.90;;;;;;5051643;28;20259;-56
2023/10/11 03:36:01;;;;;;;11.90;3.47;;;12.30;99.90;;;;;;5052558;28;20277;-56
2023/10/11 03:38:32;;;;;;;9.57;3.83;;;12.40;99.90;;;;;;5051398;28;20228;-56
2023/10/11 03:41:14;;;;;;;4.43;2.97;;;12.40;99.90;;;;;;5046743;28;20205;-56
2023/10/11 03:43:42;;;;;;;10.60;3.30;;;12.40;99.90;;;;;;5053079;28;20678;-56
2023/10/11 03:46:13;;;;;;;7.60;3.47;;;12.40;99.90;;;;;;5038641;28;20202;-56
2023/10/11 03:48:51;;;;;;;9.43;3.20;;;12.40;99.90;;;;;;5044993;28;20214;-56
2023/10/11 03:51:20;;;;;;;8.73;3.93;;;12.40;99.90;;;;;;5044887;28;20202;-56
2023/10/11 03:53:47;;;;;;;8.17;3.70;;;12.50;99.90;;;;;;5044507;28;20201;-56
2023/10/11 03:56:17;;;;;;;8.57;2.90;;;12.50;99.90;;;;;;5053323;28;20588;-56
2023/10/11 03:58:44;;;;;;;4.50;2.67;;;12.50;99.90;;;;;;5031551;28;20469;-56
2023/10/11 04:01:14;;;;;;;13.70;4.50;;;12.50;99.90;;;;;;5044745;28;20256;-56
2023/10/11 04:03:42;;;;;;;6.20;3.00;;;12.50;99.90;;;;;;5032016;28;20289;-56
2023/10/11 04:06:15;;;;;;;8.90;3.77;;;12.50;99.90;;;;;;5039960;28;20209;-56
2023/10/11 04:08:48;;;;;;;7.67;3.23;;;12.50;99.90;;;;;;5051956;28;20237;-56
2023/10/11 04:11:18;;;;;;;3.63;2.67;;;12.50;99.90;;;;;;5027962;28;20230;-56
2023/10/11 04:13:49;;;;;;;9.87;3.07;;;12.50;99.90;;;;;;5026327;28;20305;-55
2023/10/11 04:16:18;;;;;;;5.77;3.17;;;12.40;99.90;;;;;;5032251;28;20268;-55
2023/10/11 04:18:46;;;;;;;8.43;3.20;;;12.40;99.90;;;;;;5022657;28;20661;-55
2023/10/11 04:24:06;;;;;;;10.57;4.57;;;12.30;99.90;;;;;;5021072;28;20285;-55
2023/10/11 04:26:39;;;;;;;7.77;3.30;;;12.30;99.90;;;;;;5033540;28;20242;-56
2023/10/11 04:29:17;;;;;;;9.37;3.90;;;12.20;99.90;;;;;;5029724;28;20337;-55
2023/10/11 04:32:13;;;;;;;8.73;3.57;;;12.30;99.90;;;;;;5012067;28;20667;-56
2023/10/11 04:34:48;;;;;;;10.23;4.93;;;12.20;99.90;;;;;;5021271;28;20202;-55
2023/10/11 04:37:27;;;;;;;5.27;3.23;;;12.20;99.90;;;;;;5033843;28;20271;-55
2023/10/11 04:39:56;;;;;;;5.13;3.50;;;12.10;99.90;;;;;;5017634;28;20313;-56
2023/10/11 04:42:28;;;;;;;5.63;2.70;;;12.00;99.90;;;;;;5033647;28;20202;-55
2023/10/11 04:44:56;;;;;;;8.37;4.23;;;12.00;99.90;;;;;;5012463;28;20202;-55
2023/10/11 04:47:25;;;;;;;9.73;4.00;;;12.00;99.90;;;;;;5017466;28;20223;-56
2023/10/11 04:49:54;;;;;;;10.13;3.53;;;12.00;99.90;;;;;;5016446;28;20260;-56
2023/10/11 04:52:25;;;;;;;12.63;4.10;;;12.00;99.90;;;;;;5011893;28;20748;-56
2023/10/11 04:54:55;;;;;;;8.00;3.60;;;11.90;99.90;;;;;;5025881;28;20226;-55
2023/10/11 04:57:32;;;;;;;10.97;3.27;;;11.90;99.90;;;;;;5012245;28;20210;-54
2023/10/11 05:00:00;;;;;;;5.30;3.00;;;11.90;99.90;;;;;;5020599;28;20276;-55
2023/10/11 05:02:32;;;;;;;6.57;3.40;;;11.80;99.90;;;;;;5030106;28;20225;-54
2023/10/11 05:05:00;;;;;;;8.93;3.10;;;11.80;99.90;;;;;;5027251;28;20205;-55
2023/10/11 05:07:28;;;;;;;7.50;2.83;;;11.80;99.90;;;;;;5030324;28;20680;-56
2023/10/11 05:09:59;;;;;;;7.37;3.43;;;11.80;99.90;;;;;;5029543;28;20231;-55
2023/10/11 05:12:26;;;;;;;9.97;4.10;;;11.80;99.90;;;;;;5027416;28;20212;-54
2023/10/11 05:15:03;;;;;;;12.60;4.07;;;11.90;99.90;;;;;;5019372;28;20708;-54
2023/10/11 05:17:33;;;;;;;4.60;2.90;;;11.90;99.90;;;;;;5027286;28;20211;-54
2023/10/11 05:22:52;;;;;;;9.40;3.30;;;11.80;99.90;;;;;;5005116;28;20187;-55
2023/10/11 05:31:06;;;;;;;8.80;3.40;;;11.90;99.90;;;;;;5011527;28;20749;-55
2023/10/11 05:33:44;;;;;;;6.63;3.23;;;11.90;99.90;;;;;;5024524;28;20203;-54
2023/10/11 05:36:17;;;;;;;4.90;3.27;;;11.90;99.90;;;;;;5023538;28;20202;-56
2023/10/11 05:52:28;;;;;;;11.87;4.90;;;12.00;99.90;;;;;;5010607;28;20311;-56
2023/10/11 05:54:56;;;;;;;6.37;3.23;;;11.90;99.90;;;;;;5016412;28;20202;-55
2023/10/11 05:57:25;;;;;;;7.77;3.73;;;11.90;99.90;;;;;;5014568;28;20201;-55
2023/10/11 05:59:52;;;;;;;9.87;3.97;;;11.90;99.90;;;;;;5026105;28;20221;-55
2023/10/11 06:02:20;;;;;;;9.33;3.73;;;11.90;99.90;;;;;;5010725;28;20286;-56
2023/10/11 06:04:48;;;;;;;4.47;2.90;;;11.80;99.90;;;;;;5010875;28;20209;-56
2023/10/11 06:07:19;;;;;;;7.13;3.40;;;11.80;99.90;;;;;;5011262;28;20311;-55
2023/10/11 06:09:52;;;;;;;4.80;3.40;;;11.80;99.90;;;;;;5011140;28;20226;-56
2023/10/11 06:12:27;;;;;;;8.17;3.13;;;11.80;99.90;;;;;;5034754;28;20262;-55
2023/10/11 06:14:54;;;;;;;7.23;3.33;;;11.80;99.90;;;;;;5015292;28;20285;-55
2023/10/11 06:17:22;;;;;;;7.87;3.30;;;11.90;99.90;;;;;;5018017;28;20649;-56
2023/10/11 06:19:55;;;;;;;6.77;3.40;;;12.00;99.90;;;;;;5024963;28;20306;-55
2023/10/11 06:22:28;;;;;;;16.27;5.03;;;12.10;99.90;;;;;;5010722;28;20215;-55
2023/10/11 06:24:58;;;;;;;12.77;4.47;;;12.20;99.90;;;;;;5023687;28;20216;-55
2023/10/11 06:30:23;;;;;;;9.13;4.53;;;12.40;99.90;;;;;;4976495;28;20316;-56
2023/10/11 06:32:51;;;;;;;12.73;4.17;;;12.50;99.90;;;;;;5003219;28;20201;-55
2023/10/11 06:35:24;;;;;;;11.57;4.47;;;12.60;99.90;;;;;;5016637;28;20195;-56
2023/10/11 06:37:52;;;;;;;9.67;4.60;;;12.70;99.90;;;;;;5021681;28;20221;-55
2023/10/11 06:40:19;;;;;;;16.10;4.70;;;12.80;99.90;;;;;;5032549;28;20223;-55
2023/10/11 06:42:46;;;;;;;14.47;6.00;;;12.90;99.90;;;;;;5028792;28;20261;-56
2023/10/11 06:45:16;;;;;;;8.27;4.70;;;13.00;99.90;;;;;;5026435;28;20647;-55
2023/10/11 06:47:48;;;;;;;18.17;6.63;;;13.30;99.90;;;;;;5028830;28;20236;-55
2023/10/11 06:50:16;;;;;;;13.67;5.60;;;13.40;99.90;;;;;;5025756;28;20329;-56
2023/10/11 06:52:45;;;;;;;7.93;5.63;;;13.60;99.90;;;;;;5030043;28;20206;-55
2023/10/11 06:55:18;;;;;;;9.97;5.37;;;13.60;99.90;;;;;;5028997;28;20202;-55
2023/10/11 06:57:50;;;;;;;9.67;4.73;;;13.70;99.90;;;;;;5032164;28;20198;-55
2023/10/11 07:00:24;;;;;;;7.47;4.47;;;13.80;99.90;;;;;;5028347;28;20709;-55
2023/10/11 07:02:53;;;;;;;8.13;4.30;;;13.90;99.90;;;;;;5015970;28;20205;-55
2023/10/11 07:05:25;;;;;;;19.27;5.63;;;14.00;99.90;;;;;;5024073;28;20730;-55
2023/10/11 07:07:55;;;;;;;6.90;4.40;;;14.10;99.90;;;;;;5020431;28;20219;-55
2023/10/11 07:10:29;;;;;;;9.43;3.63;;;14.10;99.90;;;;;;5014387;28;20224;-55
2023/10/11 07:13:07;;;;;;;9.33;3.43;;;14.20;99.90;;;;;;5021501;28;20227;-55
2023/10/11 07:15:39;;;;;;;6.03;3.43;;;14.30;99.90;;;;;;5014064;28;20214;-55
2023/10/11 07:18:08;;;;;;;6.77;3.03;;;14.40;99.90;;;;;;5013944;28;20740;-56
2023/10/11 07:20:48;;;;;;;8.00;3.00;;;14.40;99.90;;;;;;5019408;28;20262;-56
2023/10/11 07:23:22;;;;;;;8.97;2.63;;;14.50;99.90;;;;;;5017695;28;20260;-56
2023/10/11 07:25:59;;;;;;;10.13;2.77;;;14.60;99.90;;;;;;5016267;28;20226;-55
2023/10/11 07:28:38;;;;;;;9.27;3.00;;;14.70;99.90;;;;;;5024181;28;20640;-55
2023/10/11 07:31:13;;;;;;;10.97;2.60;;;14.90;99.90;;;;;;5018381;28;20222;-55
2023/10/11 07:33:40;;;;;;;9.77;2.83;;;15.00;99.90;;;;;;5020201;28;20202;-56
2023/10/11 07:36:11;;;;;;;9.60;2.80;;;15.10;99.90;;;;;;5017609;28;20678;-53
2023/10/11 07:38:43;;;;;;;12.70;2.97;;;15.30;99.90;;;;;;5031276;28;20268;-54
2023/10/11 07:41:17;;;;;;;10.83;2.93;;;15.40;99.90;;;;;;5034620;28;20298;-55
2023/10/11 07:43:46;;;;;;;7.87;2.90;;;15.60;99.90;;;;;;5033137;28;20222;-55
2023/10/11 07:46:13;;;;;;;10.90;4.23;;;15.70;99.90;;;;;;5033417;28;20750;-55
2023/10/11 07:48:40;;;;;;;9.20;3.17;;;15.90;99.90;;;;;;5033104;28;20230;-56
2023/10/11 07:51:09;;;;;;;8.17;2.63;;;16.00;99.90;;;;;;5024694;28;20199;-55
2023/10/11 07:53:40;;;;;;;3.60;2.63;;;16.00;99.90;;;;;;5013292;28;20230;-56
2023/10/11 07:56:07;;;;;;;3.90;2.57;;;16.00;99.90;;;;;;5026237;28;20210;-55
2023/10/11 07:58:34;;;;;;;10.80;3.67;;;16.10;99.90;;;;;;5031980;28;20892;-55
2023/10/11 08:01:15;;;;;;;9.57;3.53;;;16.20;99.90;;;;;;5034648;28;20740;-55
2023/10/11 08:03:44;;;;;;;6.60;2.37;;;16.40;99.90;;;;;;5032512;28;20256;-55
2023/10/11 08:06:12;;;;;;;7.10;2.93;;;16.40;99.90;;;;;;5033124;28;20206;-55
2023/10/11 08:08:40;;;;;;;4.57;2.07;;;16.50;99.90;;;;;;5029743;28;20306;-55
2023/10/11 08:11:18;;;;;;;9.03;3.70;;;16.60;99.90;;;;;;5026470;28;20210;-56
2023/10/11 08:13:48;;;;;;;9.03;2.27;;;16.80;99.90;;;;;;5032380;28;20650;-56
2023/10/11 08:16:18;;;;;;;6.73;3.13;;;16.80;99.90;;;;;;5033047;28;20202;-56
2023/10/11 08:18:46;;;;;;;10.87;4.03;;;16.80;99.90;;;;;;5032718;28;20305;-56
2023/10/11 08:21:14;;;;;;;12.53;2.03;;;16.80;99.90;;;;;;5032623;28;20199;-56
2023/10/11 08:23:44;;;;;;;7.47;1.40;;;16.90;99.90;;;;;;5025670;28;20213;-56
2023/10/11 08:26:16;;;;;;;8.00;2.93;;;16.90;99.90;;;;;;5032438;28;20396;-56
2023/10/11 08:28:48;;;;;;;11.18;2.92;;;17.00;99.90;;;;;;5024871;28;20535;-56
2023/10/11 08:31:35;;;;;;;11.50;2.90;;;17.10;99.90;;;;;;5032040;28;20203;-64
2023/10/11 08:34:03;;;;;;;12.03;2.50;;;17.20;99.90;;;;;;5031531;28;20226;-61
2023/10/11 08:36:33;;;;;;;14.57;3.77;;;17.20;99.90;;;;;;5031046;28;20260;-61
2023/10/11 08:39:06;;;;;;;10.80;2.43;;;16.90;99.90;;;;;;5039589;28;20222;-61
2023/10/11 08:41:34;;;;;;;8.53;2.53;;;17.70;99.90;;;;;;5031036;28;20202;-61
2023/10/11 08:44:08;;;;;;;12.47;2.07;;;18.40;99.90;;;;;;5023273;28;20203;-59
2023/10/11 08:46:39;;;;;;;5.47;2.47;;;19.40;99.90;;;;;;5020981;28;20236;-60
2023/10/11 08:49:07;;;;;;;9.00;2.40;;;20.60;99.90;;;;;;5026872;28;20231;-59
2023/10/11 08:51:41;;;;;;;8.20;3.43;;;21.40;99.90;;;;;;5022885;28;20285;-59
2023/10/11 08:54:12;;;;;;;7.23;2.70;;;22.30;99.90;;;;;;5042829;28;20197;-60
2023/10/11 08:56:40;;;;;;;12.30;3.07;;;22.80;99.90;;;;;;5033953;28;20225;-60
2023/10/11 08:59:07;;;;;;;8.03;2.70;;;23.10;99.90;;;;;;5021827;28;20231;-60
2023/10/11 09:01:37;;;;;;;8.23;2.93;;;23.40;99.90;;;;;;5036529;28;20613;-63
2023/10/11 09:04:06;;;;;;;9.07;2.77;;;23.80;99.90;;;;;;5028602;28;20680;-62
2023/10/11 09:06:35;;;;;;;6.87;2.50;;;24.30;99.90;;;;;;5042390;28;20277;-62
2023/10/11 09:09:03;;;;;;;11.80;3.37;;;24.70;99.90;;;;;;5050778;28;20309;-63
2023/10/11 09:11:32;;;;;;;11.87;3.50;;;24.80;99.90;;;;;;5045419;28;20216;-60
2023/10/11 09:14:14;;;;;;;11.10;2.80;;;25.20;99.90;;;;;;5033257;28;20202;-62
2023/10/11 09:16:41;;;;;;;10.13;3.03;;;24.80;99.90;;;;;;5032209;28;20285;-56
2023/10/11 09:19:10;;;;;;;10.83;3.13;;;25.00;99.90;;;;;;5010858;28;20320;-55
2023/10/11 09:21:38;;;;;;;8.43;3.30;;;25.30;99.90;;;;;;5023195;28;20203;-56
2023/10/11 09:24:25;;;;;;;6.10;2.73;;;25.80;99.90;;;;;;5024328;28;20203;-56
2023/10/11 09:27:12;;;;;;;8.17;2.60;;;25.80;99.90;;;;;;5023878;28;20207;-56
2023/10/11 09:29:39;;;;;;;4.43;2.67;;;26.00;99.90;;;;;;5035162;28;20229;-55
2023/10/11 09:32:06;;;;;;;8.52;1.98;;;26.20;99.90;;;;;;5009119;28;20207;-56
2023/10/11 09:34:34;;;;;;;9.93;2.47;;;26.50;99.90;;;;;;5018897;28;20231;-55
2023/10/11 09:37:02;;;;;;;8.63;2.90;;;26.70;99.90;;;;;;5018658;28;20199;-56
2023/10/11 09:39:33;;;;;;;8.77;3.58;;;27.00;99.90;;;;;;5025711;28;20281;-56
2023/10/11 09:42:05;;;;;;;10.32;2.83;;;27.40;99.90;;;;;;5013296;28;20207;-56
2023/10/11 09:44:37;;;;;;;11.52;3.05;;;27.70;99.90;;;;;;5018506;28;20202;-56
2023/10/11 09:47:06;;;;;;;4.95;2.13;;;27.60;99.90;;;;;;5019958;28;20203;-56
2023/10/11 09:49:41;;;;;;;8.18;2.58;;;27.60;99.90;;;;;;5015299;28;20223;-56
2023/10/11 09:52:11;;;;;;;7.10;2.38;;;27.90;99.90;;;;;;5012457;28;20205;-56
2023/10/11 09:54:39;;;;;;;9.68;2.67;;;27.90;99.90;;;;;;5009616;28;20293;-55
2023/10/11 09:57:20;;;;;;;7.20;2.63;;;27.70;99.90;;;;;;5008410;28;20207;-55
2023/10/11 09:59:59;;;;;;;7.70;2.65;;;28.30;99.90;;;;;;5013799;28;20284;-56
2023/10/11 10:02:33;;;;;;;8.95;2.80;;;28.40;99.90;;;;;;5014946;28;20202;-55
2023/10/11 10:05:04;;;;;;;7.22;2.05;;;28.60;99.80;;;;;;5009578;28;20249;-55
2023/10/11 10:07:42;;;;;;;8.18;3.08;;;28.60;98.80;;;;;;5011828;28;20203;-55
2023/10/11 10:10:11;;;;;;;7.55;3.10;;;28.40;98.60;;;;;;5015441;28;20293;-55
2023/10/11 10:12:43;;;;;;;8.00;3.42;;;28.30;95.70;;;;;;5014247;28;20207;-61
2023/10/11 10:15:13;;;;;;;7.65;2.25;;;28.10;98.10;;;;;;5034616;28;20245;-59
2023/10/11 10:18:01;;;;;;;12.02;3.30;;;28.10;99.60;;;;;;5029993;28;20209;-59
2023/10/11 10:21:02;;;;;;;5.85;2.22;;;28.30;97.80;;;;;;5029703;28;20625;-59
2023/10/11 10:23:30;;;;;;;8.45;2.60;;;28.20;97.50;;;;;;5016755;28;20199;-60
2023/10/11 10:26:38;;;;;;;6.20;2.17;;;28.30;97.80;;;;;;5027629;28;20653;-59
2023/10/11 10:29:12;;;;;;;7.97;3.03;;;28.40;99.40;;;;;;5028787;28;20313;-58
2023/10/11 10:32:06;;;;;;;4.18;2.50;;;28.30;99.20;;;;;;5030380;28;20222;-56
2023/10/11 10:34:33;;;;;;;6.13;2.38;;;27.40;95.80;;;;;;5024456;28;20715;-55
2023/10/11 10:37:06;;;;;;;11.18;2.17;;;26.70;97.40;;;;;;5021436;28;20204;-56
2023/10/11 10:39:48;;;;;;;8.52;2.00;;;26.40;99.60;;;;;;5026888;28;20722;-55
2023/10/11 10:42:16;;;;;;;7.57;1.70;;;26.10;99.90;;;;;;5032297;28;20206;-55
2023/10/11 10:44:51;;;;;;;9.48;3.00;;;25.60;98.00;;;;;;5027005;28;20285;-55
2023/10/11 10:47:32;;;;;;;8.80;2.60;;;25.30;98.60;;;;;;5032609;28;20210;-57
2023/10/11 10:50:06;;;;;;;4.78;2.20;;;25.00;99.90;;;;;;5033106;28;20624;-56
2023/10/11 10:52:34;;;;;;;15.02;8.05;;;24.80;99.90;;;;;;5029101;28;20799;-55
2023/10/11 10:55:02;;;;;;;16.33;9.18;;;24.50;99.90;;;;;;5033417;28;20249;-55
2023/10/11 10:57:31;;;;;;;16.00;8.10;;;24.30;99.90;;;;;;5033243;28;20642;-55
2023/10/11 11:00:04;;;;;;;12.37;8.40;;;24.30;99.90;;;;;;5029493;28;20230;-55
2023/10/11 11:02:34;;;;;;;13.23;7.80;;;24.00;99.90;;;;;;5032710;28;20265;-59
2023/10/11 11:05:00;;;;;;;12.37;7.90;;;23.80;99.90;;;;;;5025951;28;20214;-56
2023/10/11 11:07:32;;;;;;;13.10;7.67;;;23.70;99.90;;;;;;5033143;28;20662;-58
2023/10/11 11:10:01;;;;;;;9.70;7.83;;;23.40;99.90;;;;;;5032638;28;20226;-56
2023/10/11 11:12:28;;;;;;;16.67;7.77;;;23.40;99.90;;;;;;5026710;28;20230;-57
2023/10/11 11:14:58;;;;;;;10.70;6.07;;;23.30;99.90;;;;;;5032690;28;20199;-58
2023/10/11 11:17:45;;;;;;;12.93;6.83;;;23.00;99.90;;;;;;5028945;28;20254;-57
2023/10/11 11:20:14;;;;;;;9.87;6.80;;;23.10;99.90;;;;;;5026889;28;20218;-60
2023/10/11 11:22:45;;;;;;;10.60;7.10;;;23.10;99.90;;;;;;5032721;28;20206;-63
2023/10/11 11:25:26;;;;;;;7.43;5.53;;;23.10;99.90;;;;;;5033152;28;20202;-64
2023/10/11 11:28:14;;;;;;;12.00;7.10;;;23.30;99.90;;;;;;5029644;28;20305;-60
2023/10/11 11:30:43;;;;;;;11.43;6.37;;;23.30;99.90;;;;;;5030772;28;20205;-58
2023/10/11 11:33:28;;;;;;;11.70;5.97;;;23.20;99.90;;;;;;5032206;28;20230;-57
2023/10/11 11:35:55;;;;;;;11.10;6.10;;;23.20;99.90;;;;;;5026330;28;20230;-53
2023/10/11 11:38:22;;;;;;;8.63;4.90;;;23.20;99.90;;;;;;5032905;28;20273;-62
2023/10/11 11:40:51;;;;;;;7.80;5.93;;;23.30;99.90;;;;;;5032624;28;20231;-60
2023/10/11 11:43:20;;;;;;;11.40;5.90;;;23.40;99.90;;;;;;5030319;28;20352;-63
2023/10/11 11:45:47;;;;;;;11.57;5.30;;;23.20;99.90;;;;;;5027171;28;20547;-62
2023/10/11 11:48:23;;;;;;;13.17;5.63;;;23.20;99.90;;;;;;5032550;28;20203;-63
2023/10/11 11:50:56;;;;;;;9.47;4.87;;;23.20;99.90;;;;;;5031357;28;20251;-59
2023/10/11 11:53:23;;;;;;;12.83;5.13;;;23.10;99.90;;;;;;5027720;28;20638;-59
2023/10/11 11:55:49;;;;;;;7.73;4.90;;;23.10;99.90;;;;;;5032619;28;20202;-59
2023/10/11 11:58:17;;;;;;;16.50;4.77;;;23.10;99.90;;;;;;5031549;28;20199;-62
2023/10/11 12:01:08;;;;;;;11.43;5.10;;;23.00;99.90;;;;;;5032333;28;20198;-59
2023/10/11 12:03:36;;;;;;;10.37;4.93;;;23.00;99.90;;;;;;5040626;28;20205;-60
2023/10/11 12:06:21;;;;;;;10.77;4.20;;;23.10;99.90;;;;;;5032631;28;20237;-60
2023/10/11 12:08:48;;;;;;;6.57;4.93;;;23.00;99.90;;;;;;5025502;28;20242;-59
2023/10/11 12:11:15;;;;;;;10.20;6.20;;;23.10;99.90;;;;;;5032367;28;20234;-62
2023/10/11 12:13:42;;;;;;;17.87;5.07;;;23.00;99.90;;;;;;5030718;28;20709;-60
2023/10/11 12:16:10;;;;;;;15.07;5.67;;;22.90;99.90;;;;;;5032477;28;20206;-54
2023/10/11 12:18:37;;;;;;;13.97;5.63;;;23.10;99.90;;;;;;5032354;28;20222;-54
2023/10/11 12:21:11;;;;;;;12.60;5.00;;;23.20;99.90;;;;;;5030623;28;20732;-54
2023/10/11 12:23:45;;;;;;;7.13;4.03;;;23.20;99.90;;;;;;5032018;28;20202;-54
2023/10/11 12:26:12;;;;;;;11.47;4.57;;;23.20;99.90;;;;;;5024289;28;20230;-54
2023/10/11 12:28:39;;;;;;;8.90;4.40;;;23.10;99.90;;;;;;5023712;28;20238;-54
2023/10/11 12:31:06;;;;;;;14.37;5.23;;;23.10;99.90;;;;;;5031770;28;20203;-54
2023/10/11 12:33:33;;;;;;;13.53;6.13;;;23.00;99.90;;;;;;5030599;28;20207;-54
2023/10/11 12:36:05;;;;;;;10.17;4.80;;;23.00;99.90;;;;;;5023896;28;20203;-54
2023/10/11 12:38:36;;;;;;;11.03;5.00;;;23.00;99.90;;;;;;5032119;28;20282;-54
2023/10/11 12:41:04;;;;;;;10.97;5.27;;;23.00;99.90;;;;;;5022469;28;20218;-54
2023/10/11 12:43:32;;;;;;;7.33;5.00;;;23.10;99.90;;;;;;5022652;28;20198;-55
2023/10/11 12:46:00;;;;;;;11.13;5.27;;;23.00;99.90;;;;;;5031194;28;20245;-54
2023/10/11 12:48:27;;;;;;;8.17;6.10;;;23.10;99.90;;;;;;5031231;28;20222;-54
2023/10/11 12:50:54;;;;;;;13.13;6.70;;;23.10;99.90;;;;;;5029596;28;21216;-54
2023/10/11 12:53:21;;;;;;;13.67;6.57;;;23.10;99.90;;;;;;5031231;28;20571;-54
2023/10/11 12:55:50;;;;;;;9.73;5.43;;;23.10;99.90;;;;;;5031387;28;20525;-54
2023/10/11 12:58:19;;;;;;;16.10;6.17;;;23.20;99.90;;;;;;5031547;28;20285;-55
2023/10/11 13:00:51;;;;;;;11.83;5.93;;;23.10;99.90;;;;;;5022804;28;20687;-53
2023/10/11 13:03:25;;;;;;;7.67;4.67;;;23.20;99.90;;;;;;5030938;28;20226;-54
2023/10/11 13:05:53;;;;;;;16.70;5.30;;;23.20;99.90;;;;;;5039842;28;20201;-54
2023/10/11 13:08:24;;;;;;;13.03;4.43;;;23.10;99.90;;;;;;5031359;28;20203;-54
2023/10/11 13:10:53;;;;;;;10.50;4.40;;;23.10;99.90;;;;;;5030134;28;20246;-54
2023/10/11 13:13:21;;;;;;;18.43;5.50;;;23.00;99.90;;;;;;5029064;28;20257;-54
2023/10/11 13:16:00;;;;;;;9.83;5.17;;;23.00;99.90;;;;;;5029778;28;20240;-54
2023/10/11 13:18:28;;;;;;;8.13;4.53;;;22.90;99.90;;;;;;5026695;28;20222;-54
2023/10/11 13:20:56;;;;;;;10.20;4.43;;;22.80;99.90;;;;;;5029833;28;20693;-54
2023/10/11 13:23:28;;;;;;;6.93;4.00;;;22.90;99.90;;;;;;5030801;28;20199;-54
2023/10/11 13:25:59;;;;;;;7.90;4.43;;;22.80;99.90;;;;;;5030291;28;20199;-54
2023/10/11 13:28:28;;;;;;;7.20;4.43;;;22.90;99.90;;;;;;5030666;28;20230;-53
2023/10/11 13:30:55;;;;;;;11.43;5.03;;;22.90;99.90;;;;;;5029851;28;20277;-54